createdAt,value
2022-10-22T00:00:46.156Z,5.40
2022-10-22T00:01:48.166Z,5.63
2022-10-22T00:02:49.756Z,5.60
2022-10-22T00:03:51.304Z,5.60
2022-10-22T00:04:53.978Z,5.82
2022-10-22T00:05:55.569Z,5.85
2022-10-22T00:06:57.427Z,5.85
2022-10-22T00:07:58.966Z,5.72
2022-10-22T00:09:00.693Z,5.70
2022-10-22T00:10:04.627Z,6.38
2022-10-22T00:11:14.519Z,5.70
2022-10-22T00:12:16.621Z,5.25
2022-10-22T00:13:18.426Z,5.65
2022-10-22T00:14:19.923Z,5.70
2022-10-22T00:15:21.617Z,6.18
2022-10-22T00:16:23.148Z,5.72
2022-10-22T00:17:24.666Z,5.82
2022-10-22T00:18:26.283Z,5.95
2022-10-22T00:19:28.246Z,6.07
2022-10-22T00:20:29.786Z,5.82
2022-10-22T00:21:31.348Z,6.00
2022-10-22T00:22:33.547Z,5.78
2022-10-22T00:23:35.176Z,5.90
2022-10-22T00:24:38.153Z,6.25
2022-10-22T00:25:39.654Z,5.85
2022-10-22T00:26:41.176Z,6.25
2022-10-22T00:27:43.131Z,6.05
2022-10-22T00:28:44.793Z,5.60
2022-10-22T00:29:46.313Z,5.88
2022-10-22T00:30:48.015Z,5.90
2022-10-22T00:31:50.062Z,5.93
2022-10-22T00:32:51.622Z,5.43
2022-10-22T00:33:53.138Z,5.93
2022-10-22T00:34:54.635Z,5.68
2022-10-22T00:35:56.688Z,5.80
2022-10-22T00:36:58.426Z,5.95
2022-10-22T00:37:59.996Z,6.00
2022-10-22T00:39:01.516Z,5.80
2022-10-22T00:40:04.179Z,5.47
2022-10-22T00:41:06.200Z,5.88
2022-10-22T00:42:07.840Z,5.75
2022-10-22T00:43:14.026Z,5.95
2022-10-22T00:44:53.008Z,5.55
2022-10-22T00:45:54.535Z,5.70
2022-10-22T00:46:56.319Z,5.70
2022-10-22T00:48:04.881Z,5.80
2022-10-22T00:49:06.421Z,5.90
2022-10-22T00:50:14.381Z,5.85
2022-10-22T00:51:16.050Z,5.80
2022-10-22T00:52:17.719Z,5.72
2022-10-22T00:53:22.636Z,5.97
2022-10-22T00:54:24.260Z,5.70
2022-10-22T00:55:28.000Z,5.47
2022-10-22T00:56:29.737Z,5.57
2022-10-22T00:57:31.798Z,5.78
2022-10-22T00:58:36.766Z,5.47
2022-10-22T00:59:38.691Z,5.90
2022-10-22T01:00:40.393Z,5.90
2022-10-22T01:01:41.994Z,6.13
2022-10-22T01:02:43.784Z,5.45
2022-10-22T01:03:45.767Z,5.50
2022-10-22T01:04:47.389Z,5.43
2022-10-22T01:06:05.097Z,5.75
2022-10-22T01:07:07.035Z,5.57
2022-10-22T01:08:16.297Z,5.63
2022-10-22T01:09:49.491Z,5.68
2022-10-22T01:11:21.697Z,5.28
2022-10-22T01:12:53.865Z,5.82
2022-10-22T01:14:04.422Z,6.07
2022-10-22T01:15:12.029Z,5.85
2022-10-22T01:16:34.838Z,5.25
2022-10-22T01:17:58.940Z,5.50
2022-10-22T01:19:25.655Z,5.40
2022-10-22T01:20:57.323Z,6.20
2022-10-22T01:22:12.030Z,5.30
2022-10-22T01:23:21.294Z,5.10
2022-10-22T01:24:31.552Z,5.78
2022-10-22T01:25:42.212Z,5.57
2022-10-22T01:27:11.828Z,5.57
2022-10-22T01:28:35.126Z,5.57
2022-10-22T01:29:48.386Z,5.50
2022-10-22T01:30:53.839Z,5.68
2022-10-22T01:32:02.519Z,5.72
2022-10-22T01:33:07.647Z,6.00
2022-10-22T01:34:11.873Z,5.78
2022-10-22T01:35:18.107Z,5.70
2022-10-22T01:36:21.054Z,5.50
2022-10-22T01:37:26.826Z,5.70
2022-10-22T01:38:29.812Z,5.15
2022-10-22T01:39:31.563Z,5.90
2022-10-22T01:40:35.359Z,5.50
2022-10-22T01:41:39.739Z,5.68
2022-10-22T01:42:41.285Z,5.53
2022-10-22T01:43:42.808Z,5.22
2022-10-22T01:44:44.422Z,5.47
2022-10-22T01:45:57.930Z,5.47
2022-10-22T01:47:15.816Z,6.00
2022-10-22T01:48:26.457Z,5.22
2022-10-22T01:49:45.490Z,5.55
2022-10-22T01:51:03.380Z,5.95
2022-10-22T01:52:25.885Z,5.70
2022-10-22T01:53:42.527Z,4.90
2022-10-22T01:54:59.578Z,5.47
2022-10-22T01:56:17.931Z,5.60
2022-10-22T01:57:28.613Z,5.85
2022-10-22T01:58:40.666Z,5.53
2022-10-22T02:00:17.207Z,5.13
2022-10-22T02:01:29.873Z,5.25
2022-10-22T02:04:09.055Z,5.32
2022-10-22T02:05:31.813Z,5.70
2022-10-22T02:06:35.147Z,5.65
2022-10-22T02:07:43.163Z,5.70
2022-10-22T02:08:46.223Z,5.32
2022-10-22T02:09:50.585Z,5.40
2022-10-22T02:10:53.511Z,5.30
2022-10-22T02:11:57.855Z,5.60
2022-10-22T02:13:01.196Z,5.60
2022-10-22T02:14:05.107Z,5.97
2022-10-22T02:15:09.716Z,5.55
2022-10-22T02:16:15.294Z,5.50
2022-10-22T02:17:21.478Z,5.50
2022-10-22T02:18:30.926Z,5.00
2022-10-22T02:19:47.492Z,5.22
2022-10-22T02:20:51.250Z,5.28
2022-10-22T02:21:54.569Z,5.07
2022-10-22T02:22:56.966Z,5.65
2022-10-22T02:23:58.903Z,5.50
2022-10-22T02:25:00.779Z,5.20
2022-10-22T02:26:13.206Z,5.35
2022-10-22T02:27:27.197Z,5.22
2022-10-22T02:28:49.100Z,5.25
2022-10-22T02:30:10.590Z,5.70
2022-10-22T02:31:17.569Z,5.00
2022-10-22T02:32:24.644Z,5.55
2022-10-22T02:33:30.174Z,5.45
2022-10-22T02:34:32.362Z,5.63
2022-10-22T02:35:35.151Z,5.55
2022-10-22T02:36:40.339Z,5.50
2022-10-22T02:37:43.104Z,5.40
2022-10-22T02:38:46.799Z,5.63
2022-10-22T02:39:49.178Z,6.00
2022-10-22T02:40:50.904Z,5.68
2022-10-22T02:41:52.708Z,5.55
2022-10-22T02:42:54.325Z,5.20
2022-10-22T02:43:56.667Z,5.38
2022-10-22T02:44:58.174Z,4.95
2022-10-22T02:45:59.863Z,5.22
2022-10-22T02:47:01.382Z,5.57
2022-10-22T02:48:03.462Z,5.35
2022-10-22T02:49:05.086Z,5.68
2022-10-22T02:50:09.625Z,5.85
2022-10-22T02:51:12.666Z,5.45
2022-10-22T02:52:14.236Z,5.47
2022-10-22T02:53:15.732Z,5.30
2022-10-22T02:54:17.273Z,5.25
2022-10-22T02:55:18.806Z,5.53
2022-10-22T02:56:20.305Z,5.35
2022-10-22T02:58:28.335Z,5.20
2022-10-22T02:59:29.847Z,5.40
2022-10-22T03:00:31.393Z,5.28
2022-10-22T03:01:33.095Z,5.50
2022-10-22T03:02:34.886Z,5.40
2022-10-22T03:03:36.409Z,5.35
2022-10-22T03:04:37.918Z,5.28
2022-10-22T03:05:39.429Z,5.47
2022-10-22T03:06:43.999Z,5.20
2022-10-22T03:07:45.546Z,4.90
2022-10-22T03:08:47.193Z,5.55
2022-10-22T03:09:48.742Z,5.38
2022-10-22T03:10:50.271Z,5.35
2022-10-22T03:11:52.532Z,5.10
2022-10-22T03:12:54.510Z,5.30
2022-10-22T03:13:56.053Z,5.45
2022-10-22T03:14:57.634Z,5.18
2022-10-22T03:15:59.152Z,5.28
2022-10-22T03:17:00.986Z,5.20
2022-10-22T03:18:02.557Z,5.47
2022-10-22T03:19:04.290Z,4.93
2022-10-22T03:20:06.353Z,5.32
2022-10-22T03:21:26.177Z,5.43
2022-10-22T03:22:31.167Z,5.10
2022-10-22T03:23:33.378Z,5.50
2022-10-22T03:24:38.617Z,5.38
2022-10-22T03:25:42.366Z,5.45
2022-10-22T03:26:47.840Z,4.70
2022-10-22T03:27:52.486Z,5.00
2022-10-22T03:28:54.919Z,5.63
2022-10-22T03:29:58.072Z,5.63
2022-10-22T03:30:59.563Z,5.10
2022-10-22T03:32:01.094Z,5.50
2022-10-22T03:33:02.733Z,5.03
2022-10-22T03:34:04.375Z,5.20
2022-10-22T03:35:06.202Z,5.35
2022-10-22T03:36:08.804Z,5.53
2022-10-22T03:37:10.548Z,5.60
2022-10-22T03:38:12.272Z,5.15
2022-10-22T03:39:16.145Z,5.20
2022-10-22T03:40:18.338Z,5.32
2022-10-22T03:41:20.122Z,4.95
2022-10-22T03:42:22.243Z,5.38
2022-10-22T03:43:23.768Z,5.22
2022-10-22T03:44:26.263Z,5.00
2022-10-22T03:45:27.868Z,5.28
2022-10-22T03:46:29.438Z,5.50
2022-10-22T03:47:30.963Z,5.38
2022-10-22T03:48:32.615Z,5.32
2022-10-22T03:49:34.315Z,5.40
2022-10-22T03:50:35.892Z,5.32
2022-10-22T03:51:37.479Z,5.43
2022-10-22T03:52:40.016Z,5.18
2022-10-22T03:53:41.541Z,4.93
2022-10-22T03:54:43.269Z,5.30
2022-10-22T03:55:44.799Z,5.15
2022-10-22T03:56:46.322Z,5.45
2022-10-22T03:57:47.872Z,5.40
2022-10-22T03:58:49.462Z,5.40
2022-10-22T03:59:51.410Z,5.28
2022-10-22T04:00:53.136Z,5.07
2022-10-22T04:01:54.676Z,5.10
2022-10-22T04:02:56.288Z,4.82
2022-10-22T04:03:58.752Z,5.28
2022-10-22T04:05:00.338Z,5.32
2022-10-22T04:06:08.076Z,5.13
2022-10-22T04:07:09.591Z,5.25
2022-10-22T04:08:11.064Z,5.07
2022-10-22T04:09:12.700Z,5.35
2022-10-22T04:10:14.537Z,5.50
2022-10-22T04:11:16.461Z,5.20
2022-10-22T04:12:18.029Z,4.97
2022-10-22T04:13:19.534Z,5.10
2022-10-22T04:14:21.065Z,5.20
2022-10-22T04:15:22.806Z,5.13
2022-10-22T04:16:26.308Z,5.15
2022-10-22T04:17:35.532Z,5.15
2022-10-22T04:18:37.812Z,5.25
2022-10-22T04:19:39.482Z,5.57
2022-10-22T04:20:43.860Z,4.97
2022-10-22T04:21:45.358Z,5.22
2022-10-22T04:22:46.898Z,5.15
2022-10-22T04:23:50.599Z,5.07
2022-10-22T04:24:52.145Z,5.07
2022-10-22T04:26:05.664Z,4.97
2022-10-22T04:27:07.220Z,5.25
2022-10-22T04:28:09.867Z,5.10
2022-10-22T04:29:15.124Z,5.20
2022-10-22T04:30:17.930Z,5.22
2022-10-22T04:31:22.285Z,5.47
2022-10-22T04:32:23.987Z,5.35
2022-10-22T04:33:26.139Z,5.40
2022-10-22T04:34:28.932Z,5.10
2022-10-22T04:35:30.562Z,4.70
2022-10-22T04:36:32.135Z,5.10
2022-10-22T04:37:34.157Z,4.95
2022-10-22T04:38:35.956Z,4.95
2022-10-22T04:39:37.517Z,5.53
2022-10-22T04:40:39.042Z,5.15
2022-10-22T04:41:40.888Z,4.95
2022-10-22T04:42:42.440Z,4.82
2022-10-22T04:43:44.760Z,5.22
2022-10-22T04:44:46.579Z,4.75
2022-10-22T04:45:48.171Z,5.25
2022-10-22T04:46:49.794Z,5.13
2022-10-22T04:47:51.450Z,5.30
2022-10-22T04:48:53.443Z,5.15
2022-10-22T04:49:54.985Z,5.20
2022-10-22T04:51:00.735Z,4.78
2022-10-22T04:52:02.315Z,5.05
2022-10-22T04:53:03.811Z,5.03
2022-10-22T04:54:05.942Z,5.40
2022-10-22T04:55:07.815Z,5.00
2022-10-22T04:56:30.123Z,5.05
2022-10-22T04:57:31.705Z,4.75
2022-10-22T04:58:33.290Z,4.85
2022-10-22T04:59:34.909Z,5.18
2022-10-22T05:00:36.466Z,4.95
2022-10-22T05:01:43.031Z,4.97
2022-10-22T05:02:49.291Z,5.38
2022-10-22T05:03:52.840Z,5.00
2022-10-22T05:04:54.352Z,4.90
2022-10-22T05:05:55.903Z,4.97
2022-10-22T05:06:57.515Z,4.95
2022-10-22T05:07:59.015Z,5.30
2022-10-22T05:09:03.219Z,5.05
2022-10-22T05:10:05.148Z,4.97
2022-10-22T05:11:17.283Z,5.10
2022-10-22T05:12:18.896Z,4.95
2022-10-22T05:13:20.427Z,4.70
2022-10-22T05:14:25.478Z,4.90
2022-10-22T05:15:27.001Z,5.25
2022-10-22T05:16:30.304Z,4.82
2022-10-22T05:17:31.831Z,5.05
2022-10-22T05:18:37.059Z,5.07
2022-10-22T05:19:38.569Z,5.50
2022-10-22T05:20:41.246Z,5.38
2022-10-22T05:21:42.777Z,4.90
2022-10-22T05:22:44.307Z,5.65
2022-10-22T05:23:48.210Z,5.45
2022-10-22T05:24:49.751Z,5.28
2022-10-22T05:25:51.304Z,4.82
2022-10-22T05:26:55.226Z,5.50
2022-10-22T05:27:58.427Z,5.10
2022-10-22T05:29:01.799Z,5.13
2022-10-22T05:30:03.522Z,5.55
2022-10-22T05:31:06.599Z,5.18
2022-10-22T05:32:08.191Z,5.05
2022-10-22T05:33:09.690Z,5.00
2022-10-22T05:34:11.308Z,5.38
2022-10-22T05:35:12.835Z,5.43
2022-10-22T05:36:18.065Z,5.13
2022-10-22T05:37:19.653Z,5.80
2022-10-22T05:38:22.011Z,5.30
2022-10-22T05:39:23.564Z,5.15
2022-10-22T05:40:31.077Z,4.88
2022-10-22T05:41:34.350Z,4.97
2022-10-22T05:42:35.922Z,5.15
2022-10-22T05:43:38.278Z,5.28
2022-10-22T05:44:40.903Z,5.22
2022-10-22T05:45:43.130Z,5.10
2022-10-22T05:46:44.719Z,4.97
2022-10-22T05:47:46.265Z,4.72
2022-10-22T05:48:58.265Z,5.25
2022-10-22T05:50:00.518Z,5.38
2022-10-22T05:51:05.483Z,5.05
2022-10-22T05:52:07.067Z,4.88
2022-10-22T05:53:08.641Z,5.03
2022-10-22T05:54:17.588Z,5.47
2022-10-22T05:55:19.164Z,5.30
2022-10-22T05:56:21.192Z,4.93
2022-10-22T05:57:22.718Z,5.13
2022-10-22T05:58:24.255Z,5.28
2022-10-22T05:59:25.823Z,5.18
2022-10-22T06:00:27.377Z,5.07
2022-10-22T06:01:31.105Z,5.20
2022-10-22T06:02:32.782Z,4.97
2022-10-22T06:03:34.386Z,5.45
2022-10-22T06:04:36.163Z,5.05
2022-10-22T06:05:37.966Z,5.28
2022-10-22T06:06:45.607Z,5.22
2022-10-22T06:07:47.400Z,5.25
2022-10-22T06:08:50.821Z,5.53
2022-10-22T06:09:53.802Z,5.50
2022-10-22T06:10:55.595Z,5.28
2022-10-22T06:11:58.211Z,5.00
2022-10-22T06:13:01.553Z,5.35
2022-10-22T06:14:03.998Z,5.13
2022-10-22T06:15:06.147Z,5.32
2022-10-22T06:16:07.711Z,5.47
2022-10-22T06:17:09.547Z,5.20
2022-10-22T06:18:11.381Z,5.07
2022-10-22T06:19:15.046Z,5.45
2022-10-22T06:20:16.869Z,5.53
2022-10-22T06:21:18.387Z,5.10
2022-10-22T06:22:19.908Z,5.05
2022-10-22T06:23:21.415Z,5.30
2022-10-22T06:24:23.006Z,5.28
2022-10-22T06:25:24.507Z,5.38
2022-10-22T06:26:26.874Z,5.07
2022-10-22T06:27:28.418Z,5.50
2022-10-22T06:28:30.265Z,5.50
2022-10-22T06:29:31.857Z,5.72
2022-10-22T06:30:33.523Z,5.00
2022-10-22T06:31:38.120Z,5.07
2022-10-22T06:32:39.981Z,5.30
2022-10-22T06:33:44.725Z,5.20
2022-10-22T06:34:46.950Z,5.05
2022-10-22T06:35:48.633Z,4.97
2022-10-22T06:36:51.645Z,5.40
2022-10-22T06:37:53.290Z,5.45
2022-10-22T06:38:55.723Z,5.35
2022-10-22T06:39:57.246Z,5.80
2022-10-22T06:41:05.951Z,5.45
2022-10-22T06:42:07.515Z,5.35
2022-10-22T06:43:10.018Z,5.82
2022-10-22T06:44:16.572Z,5.10
2022-10-22T06:45:18.369Z,5.20
2022-10-22T06:46:21.175Z,4.82
2022-10-22T06:47:22.730Z,5.28
2022-10-22T06:48:24.289Z,5.30
2022-10-22T06:49:25.880Z,5.57
2022-10-22T06:50:27.406Z,4.97
2022-10-22T06:51:29.959Z,5.10
2022-10-22T06:52:31.468Z,5.50
2022-10-22T06:53:33.313Z,5.13
2022-10-22T06:54:34.866Z,5.15
2022-10-22T06:55:36.421Z,4.97
2022-10-22T06:56:38.087Z,5.28
2022-10-22T06:57:39.910Z,5.28
2022-10-22T06:58:42.037Z,5.00
2022-10-22T06:59:43.539Z,5.40
2022-10-22T07:00:45.098Z,5.20
2022-10-22T07:01:46.767Z,5.45
2022-10-22T07:02:56.465Z,4.78
2022-10-22T07:04:01.448Z,4.97
2022-10-22T07:05:03.030Z,5.22
2022-10-22T07:06:07.606Z,5.03
2022-10-22T07:07:09.125Z,5.07
2022-10-22T07:08:10.650Z,5.18
2022-10-22T07:09:12.306Z,5.20
2022-10-22T07:10:14.114Z,4.85
2022-10-22T07:11:19.779Z,5.38
2022-10-22T07:12:21.345Z,4.90
2022-10-22T07:13:23.055Z,5.15
2022-10-22T07:14:24.561Z,5.30
2022-10-22T07:15:26.119Z,5.10
2022-10-22T07:16:31.993Z,4.93
2022-10-22T07:17:34.049Z,5.35
2022-10-22T07:18:37.106Z,5.18
2022-10-22T07:19:39.129Z,5.05
2022-10-22T07:20:40.659Z,5.47
2022-10-22T07:21:42.287Z,5.70
2022-10-22T07:22:43.945Z,5.15
2022-10-22T07:23:46.463Z,5.60
2022-10-22T07:24:47.972Z,5.63
2022-10-22T07:25:49.560Z,4.95
2022-10-22T07:26:51.251Z,5.03
2022-10-22T07:27:52.853Z,5.40
2022-10-22T07:28:54.357Z,5.38
2022-10-22T07:29:55.976Z,5.07
2022-10-22T07:30:57.489Z,5.10
2022-10-22T07:31:59.043Z,5.38
2022-10-22T07:33:00.548Z,4.82
2022-10-22T07:34:02.054Z,5.57
2022-10-22T07:35:04.711Z,5.57
2022-10-22T07:36:08.818Z,5.50
2022-10-22T07:37:10.314Z,5.22
2022-10-22T07:38:11.858Z,5.20
2022-10-22T07:39:13.403Z,5.32
2022-10-22T07:40:14.976Z,4.90
2022-10-22T07:41:17.552Z,5.50
2022-10-22T07:42:19.127Z,5.47
2022-10-22T07:43:20.714Z,4.90
2022-10-22T07:44:22.447Z,5.22
2022-10-22T07:45:23.955Z,5.00
2022-10-22T07:46:26.800Z,5.40
2022-10-22T07:47:28.339Z,4.90
2022-10-22T07:48:30.170Z,5.60
2022-10-22T07:49:31.719Z,5.07
2022-10-22T07:50:33.422Z,5.25
2022-10-22T07:51:34.941Z,5.30
2022-10-22T07:52:36.464Z,5.00
2022-10-22T07:53:38.142Z,5.32
2022-10-22T07:54:39.700Z,5.20
2022-10-22T07:55:41.273Z,5.38
2022-10-22T07:56:42.810Z,4.90
2022-10-22T07:57:44.311Z,5.22
2022-10-22T07:58:45.907Z,5.25
2022-10-22T07:59:47.409Z,5.25
2022-10-22T08:00:50.173Z,5.50
2022-10-22T08:01:51.711Z,5.25
2022-10-22T08:02:53.302Z,5.13
2022-10-22T08:03:54.895Z,5.13
2022-10-22T08:04:57.155Z,5.30
2022-10-22T08:05:59.262Z,5.28
2022-10-22T08:07:01.231Z,5.32
2022-10-22T08:08:02.866Z,5.22
2022-10-22T08:09:04.430Z,5.43
2022-10-22T08:10:07.392Z,4.95
2022-10-22T08:11:10.608Z,4.80
2022-10-22T08:12:12.146Z,4.82
2022-10-22T08:13:13.893Z,5.25
2022-10-22T08:14:15.443Z,5.07
2022-10-22T08:15:17.045Z,4.80
2022-10-22T08:16:18.851Z,4.88
2022-10-22T08:17:20.413Z,4.85
2022-10-22T08:18:21.908Z,4.90
2022-10-22T08:19:23.554Z,5.60
2022-10-22T08:20:25.185Z,4.88
2022-10-22T08:21:26.995Z,4.93
2022-10-22T08:22:28.809Z,5.15
2022-10-22T08:23:30.403Z,5.03
2022-10-22T08:24:31.942Z,5.40
2022-10-22T08:25:33.820Z,4.85
2022-10-22T08:26:35.359Z,5.05
2022-10-22T08:27:36.989Z,5.25
2022-10-22T08:28:38.644Z,5.10
2022-10-22T08:29:40.342Z,4.90
2022-10-22T08:30:42.762Z,4.85
2022-10-22T08:31:44.297Z,5.18
2022-10-22T08:32:46.041Z,5.07
2022-10-22T08:33:47.618Z,5.10
2022-10-22T08:34:49.925Z,5.45
2022-10-22T08:35:52.629Z,5.20
2022-10-22T08:36:54.198Z,4.90
2022-10-22T08:37:55.705Z,5.20
2022-10-22T08:38:57.227Z,5.25
2022-10-22T08:39:58.744Z,5.22
2022-10-22T08:41:11.836Z,5.47
2022-10-22T08:42:25.477Z,5.40
2022-10-22T08:43:57.731Z,4.93
2022-10-22T08:45:13.058Z,5.20
2022-10-22T08:46:14.585Z,4.93
2022-10-22T08:47:35.178Z,4.97
2022-10-22T08:48:49.682Z,5.50
2022-10-22T08:49:53.637Z,5.25
2022-10-22T08:50:57.445Z,5.55
2022-10-22T08:52:00.265Z,5.50
2022-10-22T08:53:07.244Z,5.57
2022-10-22T08:54:28.183Z,5.10
2022-10-22T08:55:35.153Z,5.25
2022-10-22T08:56:42.741Z,5.05
2022-10-22T08:57:55.497Z,5.10
2022-10-22T08:59:32.107Z,5.13
2022-10-22T09:00:45.425Z,4.90
2022-10-22T09:01:49.222Z,5.20
2022-10-22T09:02:56.317Z,4.93
2022-10-22T09:04:08.774Z,4.97
2022-10-22T09:05:40.215Z,5.05
2022-10-22T09:06:44.324Z,5.07
2022-10-22T09:07:50.193Z,4.60
2022-10-22T09:08:53.752Z,4.93
2022-10-22T09:10:00.316Z,5.30
2022-10-22T09:11:04.156Z,4.72
2022-10-22T09:12:07.373Z,5.10
2022-10-22T09:13:14.082Z,5.35
2022-10-22T09:14:25.471Z,5.30
2022-10-22T09:15:27.527Z,5.25
2022-10-22T09:16:53.341Z,5.05
2022-10-22T09:18:24.797Z,4.60
2022-10-22T09:19:40.317Z,4.97
2022-10-22T09:20:59.022Z,5.20
2022-10-22T09:22:20.735Z,4.65
2022-10-22T09:23:25.874Z,4.75
2022-10-22T09:24:39.878Z,4.95
2022-10-22T09:25:42.790Z,5.15
2022-10-22T09:26:44.319Z,4.70
2022-10-22T09:27:46.007Z,4.95
2022-10-22T09:28:50.862Z,4.90
2022-10-22T09:29:52.431Z,5.00
2022-10-22T09:30:54.045Z,4.90
2022-10-22T09:31:55.624Z,4.68
2022-10-22T09:33:06.760Z,5.15
2022-10-22T09:34:08.466Z,4.55
2022-10-22T09:35:12.821Z,5.30
2022-10-22T09:36:21.319Z,5.00
2022-10-22T09:37:27.436Z,5.20
2022-10-22T09:38:53.875Z,5.10
2022-10-22T09:39:58.999Z,4.78
2022-10-22T09:41:04.000Z,5.00
2022-10-22T09:42:07.143Z,5.15
2022-10-22T09:43:14.315Z,4.90
2022-10-22T09:44:15.833Z,5.30
2022-10-22T09:45:25.031Z,4.82
2022-10-22T09:46:30.055Z,4.82
2022-10-22T09:48:00.628Z,4.80
2022-10-22T09:49:06.757Z,4.90
2022-10-22T09:50:25.353Z,5.40
2022-10-22T09:51:56.326Z,4.85
2022-10-22T09:52:59.563Z,4.65
2022-10-22T09:54:03.511Z,4.80
2022-10-22T09:55:17.580Z,4.90
2022-10-22T09:56:27.735Z,4.60
2022-10-22T09:57:30.016Z,4.93
2022-10-22T09:58:42.530Z,5.07
2022-10-22T09:59:49.214Z,5.03
2022-10-22T10:00:59.249Z,5.18
2022-10-22T10:02:13.625Z,5.00
2022-10-22T10:03:29.005Z,5.13
2022-10-22T10:04:35.420Z,4.90
2022-10-22T10:05:37.684Z,4.88
2022-10-22T10:06:42.627Z,4.82
2022-10-22T10:07:44.623Z,4.97
2022-10-22T10:08:46.564Z,4.63
2022-10-22T10:09:48.871Z,4.90
2022-10-22T10:11:29.075Z,4.47
2022-10-22T10:12:37.087Z,5.05
2022-10-22T10:14:16.053Z,4.65
2022-10-22T10:15:24.603Z,4.80
2022-10-22T10:16:55.243Z,4.72
2022-10-22T10:18:15.385Z,5.13
2022-10-22T10:19:44.784Z,4.90
2022-10-22T10:21:09.449Z,4.80
2022-10-22T10:22:39.124Z,4.72
2022-10-22T10:23:46.617Z,4.57
2022-10-22T10:25:07.442Z,4.65
2022-10-22T10:26:26.430Z,4.63
2022-10-22T10:27:46.902Z,4.80
2022-10-22T10:29:15.488Z,4.75
2022-10-22T10:30:20.588Z,5.00
2022-10-22T10:31:59.675Z,4.57
2022-10-22T10:33:13.239Z,4.80
2022-10-22T10:34:40.759Z,4.80
2022-10-22T10:36:07.205Z,4.82
2022-10-22T10:37:25.079Z,4.70
2022-10-22T10:39:11.106Z,4.70
2022-10-22T10:40:24.015Z,4.60
2022-10-22T10:41:41.242Z,4.38
2022-10-22T10:43:21.158Z,4.47
2022-10-22T10:44:41.890Z,4.53
2022-10-22T10:46:08.095Z,4.38
2022-10-22T10:47:26.634Z,4.55
2022-10-22T10:48:49.862Z,4.70
2022-10-22T10:49:57.964Z,4.93
2022-10-22T10:51:26.227Z,4.57
2022-10-22T10:52:40.629Z,4.40
2022-10-22T10:54:04.980Z,4.60
2022-10-22T10:55:30.837Z,4.88
2022-10-22T10:56:47.633Z,4.50
2022-10-22T10:58:37.446Z,4.90
2022-10-22T11:00:09.978Z,4.50
2022-10-22T11:01:29.439Z,4.70
2022-10-22T11:04:40.128Z,4.43
2022-10-22T11:06:21.672Z,4.88
2022-10-22T11:07:35.203Z,4.30
2022-10-22T11:08:43.520Z,4.18
2022-10-22T11:10:26.127Z,4.93
2022-10-22T11:11:39.122Z,4.40
2022-10-22T11:12:48.825Z,4.25
2022-10-22T11:13:56.568Z,4.80
2022-10-22T11:15:12.267Z,4.35
2022-10-22T11:16:25.899Z,4.47
2022-10-22T11:17:35.629Z,4.53
2022-10-22T11:18:51.979Z,4.35
2022-10-22T11:20:04.838Z,5.03
2022-10-22T11:21:26.789Z,4.40
2022-10-22T11:23:06.659Z,4.50
2022-10-22T11:24:22.862Z,4.32
2022-10-22T11:25:47.563Z,4.72
2022-10-22T11:26:56.402Z,4.78
2022-10-22T11:28:11.010Z,4.72
2022-10-22T11:29:24.131Z,4.55
2022-10-22T11:30:29.833Z,4.82
2022-10-22T11:31:32.682Z,4.30
2022-10-22T11:32:34.964Z,4.40
2022-10-22T11:34:34.316Z,4.05
2022-10-22T11:35:40.452Z,4.20
2022-10-22T11:36:43.371Z,4.57
2022-10-22T11:37:47.239Z,4.30
2022-10-22T11:38:49.486Z,4.38
2022-10-22T11:39:53.983Z,4.30
2022-10-22T11:41:06.806Z,4.65
2022-10-22T11:42:43.343Z,4.45
2022-10-22T11:44:18.138Z,4.20
2022-10-22T11:45:25.808Z,4.22
2022-10-22T11:46:38.979Z,4.40
2022-10-22T11:48:12.380Z,4.00
2022-10-22T11:49:13.854Z,4.10
2022-10-22T11:50:22.993Z,4.20
2022-10-22T11:51:35.375Z,4.47
2022-10-22T11:52:36.913Z,4.20
2022-10-22T11:53:39.376Z,4.07
2022-10-22T11:54:44.559Z,4.03
2022-10-22T11:55:56.009Z,4.45
2022-10-22T11:57:16.359Z,4.10
2022-10-22T11:58:30.566Z,4.00
2022-10-22T11:59:39.950Z,4.68
2022-10-22T12:00:48.206Z,4.20
2022-10-22T12:01:55.687Z,4.57
2022-10-22T12:03:15.889Z,3.88
2022-10-22T12:04:22.186Z,4.30
2022-10-22T12:05:23.746Z,4.45
2022-10-22T12:06:27.114Z,4.20
2022-10-22T12:07:58.389Z,4.40
2022-10-22T12:09:05.982Z,3.97
2022-10-22T12:10:19.645Z,4.35
2022-10-22T12:11:39.813Z,4.20
2022-10-22T12:12:41.770Z,4.30
2022-10-22T12:13:58.773Z,4.05
2022-10-22T12:15:01.082Z,4.05
2022-10-22T12:16:04.178Z,3.85
2022-10-22T12:17:11.595Z,4.10
2022-10-22T12:19:20.451Z,4.15
2022-10-22T12:20:25.963Z,4.18
2022-10-22T12:21:27.523Z,4.05
2022-10-22T12:22:32.246Z,4.07
2022-10-22T12:23:36.219Z,4.00
2022-10-22T12:24:44.687Z,4.00
2022-10-22T12:25:46.234Z,4.18
2022-10-22T12:26:52.274Z,4.00
2022-10-22T12:27:57.259Z,4.10
2022-10-22T12:29:00.201Z,3.95
2022-10-22T12:30:16.138Z,3.90
2022-10-22T12:31:17.915Z,4.20
2022-10-22T12:32:19.519Z,3.97
2022-10-22T12:33:23.516Z,3.90
2022-10-22T12:34:25.524Z,4.25
2022-10-22T12:35:30.010Z,3.80
2022-10-22T12:36:36.964Z,3.97
2022-10-22T12:37:38.760Z,4.00
2022-10-22T12:38:47.067Z,4.07
2022-10-22T12:39:48.661Z,4.10
2022-10-22T12:40:51.739Z,3.92
2022-10-22T12:41:54.821Z,4.18
2022-10-22T12:43:02.073Z,4.18
2022-10-22T12:44:05.815Z,3.92
2022-10-22T12:45:07.696Z,4.00
2022-10-22T12:46:15.136Z,4.10
2022-10-22T12:47:18.441Z,4.30
2022-10-22T12:48:30.774Z,3.95
2022-10-22T12:49:38.952Z,4.10
2022-10-22T12:50:43.231Z,4.20
2022-10-22T12:51:46.812Z,4.10
2022-10-22T12:52:49.325Z,4.30
2022-10-22T12:53:53.612Z,4.40
2022-10-22T12:54:55.199Z,3.72
2022-10-22T12:56:02.608Z,3.95
2022-10-22T12:57:04.154Z,3.83
2022-10-22T12:58:07.076Z,4.35
2022-10-22T12:59:30.773Z,4.32
2022-10-22T13:00:34.519Z,4.13
2022-10-22T13:01:41.895Z,4.20
2022-10-22T13:02:45.428Z,3.70
2022-10-22T13:03:50.712Z,4.32
2022-10-22T13:05:16.482Z,3.35
2022-10-22T13:06:21.572Z,3.85
2022-10-22T13:07:23.085Z,3.90
2022-10-22T13:08:28.660Z,3.90
2022-10-22T13:09:48.653Z,3.63
2022-10-22T13:10:52.875Z,4.13
2022-10-22T13:12:04.767Z,3.58
2022-10-22T13:13:07.105Z,3.90
2022-10-22T13:14:30.785Z,3.92
2022-10-22T13:15:32.835Z,3.88
2022-10-22T13:17:42.223Z,3.67
2022-10-22T13:18:45.604Z,3.97
2022-10-22T13:20:02.163Z,3.53
2022-10-22T13:21:04.007Z,3.72
2022-10-22T13:22:24.120Z,3.83
2022-10-22T13:23:28.117Z,3.78
2022-10-22T13:24:31.038Z,4.03
2022-10-22T13:25:35.087Z,4.00
2022-10-22T13:26:37.783Z,3.90
2022-10-22T13:27:57.552Z,3.97
2022-10-22T13:29:01.149Z,3.70
2022-10-22T13:30:17.707Z,3.90
2022-10-22T13:31:22.844Z,3.60
2022-10-22T13:32:29.772Z,3.60
2022-10-22T13:33:40.700Z,4.00
2022-10-22T13:34:44.258Z,3.70
2022-10-22T13:35:45.865Z,3.80
2022-10-22T13:36:48.196Z,3.83
2022-10-22T13:37:49.783Z,4.20
2022-10-22T13:38:51.752Z,3.78
2022-10-22T13:39:53.321Z,3.47
2022-10-22T13:40:56.035Z,4.07
2022-10-22T13:41:57.520Z,3.85
2022-10-22T13:42:59.039Z,3.70
2022-10-22T13:44:00.564Z,3.70
2022-10-22T13:45:02.048Z,4.00
2022-10-22T13:46:05.741Z,3.85
2022-10-22T13:47:36.570Z,4.13
2022-10-22T13:48:38.697Z,3.78
2022-10-22T13:49:43.304Z,3.97
2022-10-22T13:50:45.607Z,4.03
2022-10-22T13:51:47.719Z,4.00
2022-10-22T13:52:52.705Z,4.07
2022-10-22T13:53:54.381Z,3.60
2022-10-22T13:54:55.964Z,3.65
2022-10-22T13:55:57.578Z,3.63
2022-10-22T13:56:59.136Z,3.90
2022-10-22T13:58:09.802Z,3.85
2022-10-22T13:59:11.645Z,3.60
2022-10-22T14:00:16.128Z,4.07
2022-10-22T14:01:23.747Z,3.60
2022-10-22T14:02:26.007Z,3.60
2022-10-22T14:03:33.280Z,3.65
2022-10-22T14:04:39.118Z,3.70
2022-10-22T14:05:40.938Z,3.88
2022-10-22T14:06:42.845Z,3.92
2022-10-22T14:07:45.298Z,3.40
2022-10-22T14:08:50.631Z,3.90
2022-10-22T14:09:52.179Z,3.70
2022-10-22T14:10:54.171Z,3.53
2022-10-22T14:11:55.671Z,3.70
2022-10-22T14:12:58.492Z,3.47
2022-10-22T14:14:00.080Z,3.88
2022-10-22T14:15:01.756Z,3.50
2022-10-22T14:16:05.391Z,3.70
2022-10-22T14:17:15.722Z,3.67
2022-10-22T14:18:25.424Z,3.60
2022-10-22T14:19:27.272Z,3.63
2022-10-22T14:20:31.886Z,3.60
2022-10-22T14:21:37.794Z,3.90
2022-10-22T14:22:39.341Z,3.92
2022-10-22T14:23:42.633Z,3.85
2022-10-22T14:24:45.285Z,3.40
2022-10-22T14:25:47.557Z,3.47
2022-10-22T14:26:49.149Z,3.70
2022-10-22T14:27:50.919Z,3.78
2022-10-22T14:30:22.411Z,3.40
2022-10-22T14:31:24.121Z,3.60
2022-10-22T14:32:28.317Z,3.78
2022-10-22T14:33:32.699Z,3.45
2022-10-22T14:34:35.310Z,3.50
2022-10-22T14:35:36.845Z,3.58
2022-10-22T14:36:38.746Z,3.70
2022-10-22T14:37:40.702Z,3.70
2022-10-22T14:38:43.387Z,3.78
2022-10-22T14:39:47.061Z,3.38
2022-10-22T14:40:49.501Z,4.10
2022-10-22T14:41:51.002Z,3.65
2022-10-22T14:42:52.529Z,3.90
2022-10-22T14:43:59.540Z,3.65
2022-10-22T14:45:01.152Z,3.67
2022-10-22T14:46:02.683Z,3.28
2022-10-22T14:47:04.492Z,3.58
2022-10-22T14:48:06.632Z,3.70
2022-10-22T14:49:08.243Z,3.67
2022-10-22T14:50:10.998Z,3.50
2022-10-22T14:51:20.607Z,3.40